createdAt,value
2018-08-06T00:02:07.571Z,17.36
2018-08-06T00:07:05.080Z,17.11
2018-08-06T00:12:07.995Z,16.77
2018-08-06T00:17:05.731Z,16.99
2018-08-06T00:22:03.202Z,17.31
2018-08-06T00:27:00.603Z,16.93
2018-08-06T00:31:58.030Z,16.51
2018-08-06T00:36:55.607Z,16.25
2018-08-06T00:41:53.836Z,16.18
2018-08-06T00:46:51.326Z,15.93
2018-08-06T00:51:48.717Z,15.79
2018-08-06T00:56:46.115Z,15.66
2018-08-06T01:01:43.567Z,15.97
2018-08-06T01:06:40.967Z,15.82
2018-08-06T01:11:38.492Z,16.37
2018-08-06T01:16:35.925Z,16.06
2018-08-06T01:21:33.371Z,16.35
2018-08-06T01:26:30.806Z,16.72
2018-08-06T01:31:28.220Z,16.85
2018-08-06T01:36:25.643Z,16.73
2018-08-06T01:41:23.086Z,16.80
2018-08-06T01:46:20.531Z,16.70
2018-08-06T01:51:17.968Z,16.46
2018-08-06T01:56:15.359Z,16.23
2018-08-06T02:01:12.806Z,16.13
2018-08-06T02:06:10.191Z,15.96
2018-08-06T02:11:18.507Z,15.99
2018-08-06T02:16:15.987Z,16.12
2018-08-06T02:21:13.410Z,15.39
2018-08-06T02:26:10.808Z,15.32
2018-08-06T02:31:08.248Z,15.07
2018-08-06T02:36:05.715Z,14.87
2018-08-06T02:41:03.132Z,14.74
2018-08-06T02:46:00.558Z,14.60
2018-08-06T02:50:58.018Z,14.58
2018-08-06T02:55:55.419Z,14.58
2018-08-06T03:00:52.846Z,14.39
2018-08-06T03:05:50.263Z,14.34
2018-08-06T03:10:47.711Z,14.36
2018-08-06T03:15:45.175Z,14.26
2018-08-06T03:20:42.618Z,14.13
2018-08-06T03:25:40.127Z,14.16
2018-08-06T03:30:37.540Z,14.05
2018-08-06T03:35:34.951Z,13.95
2018-08-06T03:40:32.419Z,13.93
2018-08-06T03:45:29.878Z,13.95
2018-08-06T03:50:27.302Z,13.95
2018-08-06T03:55:24.760Z,13.94
2018-08-06T04:00:22.203Z,13.94
2018-08-06T04:05:19.639Z,13.89
2018-08-06T04:10:17.494Z,13.93
2018-08-06T04:15:15.023Z,13.86
2018-08-06T04:20:13.039Z,13.89
2018-08-06T04:25:10.557Z,14.21
2018-08-06T04:30:10.322Z,14.16
2018-08-06T04:35:07.728Z,14.41
2018-08-06T04:40:06.691Z,14.43
2018-08-06T04:45:05.275Z,14.54
2018-08-06T04:50:02.915Z,15.21
2018-08-06T04:55:00.354Z,15.77
2018-08-06T04:59:57.852Z,16.09
2018-08-06T05:04:55.268Z,16.31
2018-08-06T05:09:52.942Z,17.05
2018-08-06T05:14:50.432Z,17.21
2018-08-06T05:19:47.830Z,17.40
2018-08-06T05:24:45.322Z,17.62
2018-08-06T05:29:42.817Z,17.79
2018-08-06T05:34:40.271Z,17.85
2018-08-06T05:39:37.735Z,18.46
2018-08-06T05:44:35.211Z,19.25
2018-08-06T05:49:32.739Z,20.32
2018-08-06T05:54:30.187Z,20.95
2018-08-06T05:59:27.635Z,21.15
2018-08-06T06:04:25.102Z,21.25
2018-08-06T06:09:22.583Z,21.46
2018-08-06T06:14:20.146Z,21.88
2018-08-06T06:19:17.693Z,22.18
2018-08-06T06:24:15.039Z,22.73
2018-08-06T06:29:12.430Z,22.98
2018-08-06T06:34:09.995Z,23.16
2018-08-06T06:39:09.033Z,23.31
2018-08-06T06:44:06.966Z,23.70
2018-08-06T06:49:04.452Z,23.96
2018-08-06T06:54:01.933Z,24.01
2018-08-06T06:58:59.388Z,24.10
2018-08-06T07:03:56.844Z,24.24
2018-08-06T07:08:54.398Z,24.31
2018-08-06T07:13:51.972Z,24.46
2018-08-06T07:18:49.355Z,24.53
2018-08-06T07:23:46.754Z,25.05
2018-08-06T07:28:44.204Z,25.40
2018-08-06T07:33:41.669Z,25.50
2018-08-06T07:38:39.155Z,25.68
2018-08-06T07:43:36.582Z,25.50
2018-08-06T07:48:34.071Z,25.98
2018-08-06T07:53:31.543Z,25.93
2018-08-06T07:58:30.035Z,26.18
2018-08-06T08:03:27.526Z,26.34
2018-08-06T08:08:24.927Z,26.32
2018-08-06T08:13:22.364Z,26.87
2018-08-06T08:18:19.852Z,27.15
2018-08-06T08:23:17.288Z,26.94
2018-08-06T08:28:14.713Z,27.04
2018-08-06T08:33:12.204Z,27.07
2018-08-06T08:38:09.642Z,27.44
2018-08-06T08:43:07.123Z,27.45
2018-08-06T08:48:04.970Z,27.59
2018-08-06T08:53:02.411Z,28.03
2018-08-06T08:57:59.867Z,28.19
2018-08-06T09:02:57.310Z,28.48
2018-08-06T09:07:54.775Z,28.29
2018-08-06T09:12:52.282Z,28.26
2018-08-06T09:17:49.752Z,28.17
2018-08-06T09:22:47.387Z,29.01
2018-08-06T09:27:46.495Z,29.55
2018-08-06T09:32:46.267Z,29.07
2018-08-06T09:37:43.688Z,29.44
2018-08-06T09:42:42.859Z,30.07
2018-08-06T09:47:41.473Z,29.31
2018-08-06T09:52:39.154Z,29.38
2018-08-06T09:57:36.587Z,29.47
2018-08-06T10:02:34.008Z,29.77
2018-08-06T10:07:31.401Z,30.05
2018-08-06T10:12:35.399Z,30.39
2018-08-06T10:17:32.860Z,29.74
2018-08-06T10:22:30.296Z,30.19
2018-08-06T10:27:27.863Z,30.33
2018-08-06T10:32:25.372Z,30.42
2018-08-06T10:37:22.849Z,30.82
2018-08-06T10:42:24.473Z,30.71
2018-08-06T10:47:22.047Z,31.05
2018-08-06T10:52:19.541Z,31.17
2018-08-06T10:57:16.956Z,31.06
2018-08-06T11:02:14.399Z,31.53
2018-08-06T11:07:12.643Z,31.39
2018-08-06T11:12:19.406Z,31.38
2018-08-06T11:17:16.946Z,31.86
2018-08-06T11:22:14.391Z,31.98
2018-08-06T11:27:11.868Z,31.83
2018-08-06T11:32:09.345Z,31.38
2018-08-06T11:37:06.863Z,32.17
2018-08-06T11:42:13.502Z,32.13
2018-08-06T11:47:11.039Z,32.07
2018-08-06T11:52:09.894Z,32.61
2018-08-06T11:57:07.456Z,32.74
2018-08-06T12:02:05.408Z,32.70
2018-08-06T12:07:02.878Z,33.12
2018-08-06T12:12:02.838Z,33.34
2018-08-06T12:17:00.323Z,33.28
2018-08-06T12:21:57.869Z,33.26
2018-08-06T12:26:55.363Z,33.11
2018-08-06T12:31:52.880Z,31.80
2018-08-06T12:36:50.392Z,33.58
2018-08-06T12:41:50.334Z,32.83
2018-08-06T12:46:47.948Z,33.51
2018-08-06T12:51:45.420Z,33.55
2018-08-06T12:56:42.960Z,33.24
2018-08-06T13:01:40.507Z,33.51
2018-08-06T13:06:37.991Z,33.89
2018-08-06T13:11:35.436Z,32.67
2018-08-06T13:16:32.858Z,31.64
2018-08-06T13:21:30.522Z,33.23
2018-08-06T13:26:28.060Z,33.52
2018-08-06T13:31:25.633Z,33.28
2018-08-06T13:36:23.423Z,34.35
2018-08-06T13:41:20.890Z,34.68
2018-08-06T13:46:18.372Z,34.55
2018-08-06T13:51:15.883Z,34.48
2018-08-06T13:56:13.356Z,34.32
2018-08-06T14:01:10.850Z,32.65
2018-08-06T14:06:08.399Z,33.94
2018-08-06T14:11:05.927Z,32.83
2018-08-06T14:16:03.399Z,33.14
2018-08-06T14:21:00.824Z,33.89
2018-08-06T14:25:58.380Z,34.66
2018-08-06T14:30:55.782Z,34.70
2018-08-06T14:35:53.179Z,32.90
2018-08-06T14:40:50.676Z,33.29
2018-08-06T14:45:48.207Z,33.02
2018-08-06T14:50:45.734Z,33.62
2018-08-06T14:55:43.189Z,34.44
2018-08-06T15:00:40.715Z,32.88
2018-08-06T15:05:38.163Z,33.92
2018-08-06T15:10:35.619Z,34.61
2018-08-06T15:15:33.031Z,35.36
2018-08-06T15:20:30.451Z,34.50
2018-08-06T15:25:27.873Z,35.11
2018-08-06T15:30:25.360Z,34.94
2018-08-06T15:35:22.823Z,34.83
2018-08-06T15:40:20.631Z,34.69
2018-08-06T15:45:18.114Z,35.39
2018-08-06T15:50:18.435Z,35.61
2018-08-06T15:55:15.937Z,35.02
2018-08-06T16:00:20.022Z,35.11
2018-08-06T16:05:17.571Z,35.28
2018-08-06T16:10:15.424Z,35.79
2018-08-06T16:15:13.905Z,36.33
2018-08-06T16:20:13.054Z,36.52
2018-08-06T16:25:11.707Z,36.39
2018-08-06T16:30:15.639Z,36.03
2018-08-06T16:35:13.091Z,36.45
2018-08-06T16:40:11.702Z,36.79
2018-08-06T16:45:09.759Z,37.34
2018-08-06T16:50:12.064Z,37.94
2018-08-06T16:55:09.959Z,37.25
2018-08-06T17:00:12.641Z,37.33
2018-08-06T17:05:11.777Z,36.85
2018-08-06T17:10:11.904Z,38.05
2018-08-06T17:15:10.785Z,38.95
2018-08-06T17:20:13.077Z,38.37
2018-08-06T17:25:11.366Z,38.97
2018-08-06T17:30:09.424Z,38.83
2018-08-06T17:35:08.668Z,37.67
2018-08-06T17:40:10.023Z,36.23
2018-08-06T17:45:10.764Z,36.18
2018-08-06T17:50:10.600Z,36.60
2018-08-06T17:55:08.027Z,36.48
2018-08-06T18:00:06.211Z,34.87
2018-08-06T18:05:04.007Z,35.08
2018-08-06T18:10:01.474Z,34.66
2018-08-06T18:15:00.000Z,34.64
2018-08-06T18:19:57.610Z,34.50
2018-08-06T18:24:55.064Z,34.23
2018-08-06T18:29:52.516Z,33.00
2018-08-06T18:34:49.935Z,32.52
2018-08-06T18:39:47.345Z,31.96
2018-08-06T18:44:44.792Z,31.45
2018-08-06T18:49:42.273Z,30.24
2018-08-06T18:54:39.767Z,29.38
2018-08-06T18:59:37.186Z,29.21
2018-08-06T19:04:34.599Z,28.76
2018-08-06T19:09:32.219Z,27.82
2018-08-06T19:14:29.677Z,27.89
2018-08-06T19:19:28.381Z,27.25
2018-08-06T19:24:31.572Z,26.83
2018-08-06T19:29:28.972Z,27.07
2018-08-06T19:34:26.411Z,26.30
2018-08-06T19:39:24.011Z,26.26
2018-08-06T19:44:21.531Z,26.17
2018-08-06T19:49:24.675Z,25.66
2018-08-06T19:54:22.111Z,25.14
2018-08-06T19:59:21.904Z,24.92
2018-08-06T20:04:20.197Z,24.97
2018-08-06T20:09:17.674Z,24.66
2018-08-06T20:14:15.106Z,24.29
2018-08-06T20:19:12.583Z,24.16
2018-08-06T20:24:10.008Z,24.81
2018-08-06T20:29:07.423Z,24.80
2018-08-06T20:34:05.216Z,24.71
2018-08-06T20:39:02.759Z,24.47
2018-08-06T20:44:00.255Z,24.20
2018-08-06T20:48:57.731Z,24.21
2018-08-06T20:53:55.267Z,23.95
2018-08-06T20:58:52.755Z,23.80
2018-08-06T21:03:50.216Z,23.95
2018-08-06T21:08:47.639Z,23.39
2018-08-06T21:13:46.356Z,23.89
2018-08-06T21:18:43.767Z,23.35
2018-08-06T21:23:41.250Z,23.58
2018-08-06T21:28:38.618Z,23.66
2018-08-06T21:33:35.989Z,23.33
2018-08-06T21:38:33.383Z,23.14
2018-08-06T21:43:30.787Z,23.27
2018-08-06T21:48:28.175Z,23.10
2018-08-06T21:53:25.598Z,22.40
2018-08-06T21:58:23.000Z,22.60
2018-08-06T22:03:20.386Z,22.00
2018-08-06T22:08:17.784Z,21.82
2018-08-06T22:13:15.219Z,21.80
2018-08-06T22:18:12.670Z,21.55
2018-08-06T22:23:10.069Z,21.51
2018-08-06T22:28:09.513Z,21.29
2018-08-06T22:33:06.978Z,21.92
2018-08-06T22:38:04.375Z,21.50
2018-08-06T22:43:01.872Z,21.45
2018-08-06T22:47:59.327Z,21.24
2018-08-06T22:52:56.738Z,21.08
2018-08-06T22:57:54.222Z,21.15
2018-08-06T23:02:51.634Z,20.99
2018-08-06T23:07:49.005Z,21.25
2018-08-06T23:12:47.587Z,21.17
2018-08-06T23:17:45.429Z,21.03
2018-08-06T23:22:42.891Z,20.86
2018-08-06T23:27:40.273Z,20.65
2018-08-06T23:32:38.004Z,20.62
2018-08-06T23:37:35.452Z,20.47
2018-08-06T23:42:38.654Z,20.80
2018-08-06T23:47:36.658Z,20.89
2018-08-06T23:52:34.071Z,20.91
2018-08-06T23:57:31.560Z,20.85
